createdAt,value
2018-11-28T05:00:55.625Z,1.33
2018-11-28T05:01:55.486Z,1.36
2018-11-28T05:03:48.154Z,1.46
2018-11-28T05:04:48.026Z,1.44
2018-11-28T05:06:40.703Z,1.46
2018-11-28T05:07:40.569Z,1.48
2018-11-28T05:09:33.222Z,1.46
2018-11-28T05:10:33.100Z,1.40
2018-11-28T05:12:25.787Z,1.48
2018-11-28T05:13:25.651Z,1.50
2018-11-28T05:15:18.314Z,1.48
2018-11-28T05:16:18.191Z,1.46
2018-11-28T05:18:10.868Z,1.42
2018-11-28T05:19:10.740Z,1.51
2018-11-28T05:21:03.397Z,1.53
2018-11-28T05:22:03.281Z,1.51
2018-11-28T05:23:55.948Z,1.48
2018-11-28T05:24:55.817Z,1.57
2018-11-28T05:26:48.479Z,1.56
2018-11-28T05:27:48.358Z,1.56
2018-11-28T05:29:41.039Z,1.57
2018-11-28T05:30:40.959Z,1.60
2018-11-28T05:32:33.554Z,1.56
2018-11-28T05:33:33.436Z,1.61
2018-11-28T05:35:26.114Z,1.58
2018-11-28T05:36:25.978Z,1.57
2018-11-28T05:38:18.658Z,1.58
2018-11-28T05:39:18.521Z,1.54
2018-11-28T05:41:11.173Z,1.57
2018-11-28T05:42:11.063Z,1.57
2018-11-28T05:44:03.733Z,1.60
2018-11-28T05:45:03.598Z,1.60
2018-11-28T05:46:56.250Z,1.68
2018-11-28T05:47:56.135Z,1.65
2018-11-28T05:49:48.814Z,1.76
2018-11-28T05:50:48.673Z,1.72
2018-11-28T05:52:41.333Z,1.69
2018-11-28T05:53:41.211Z,1.71
2018-11-28T05:55:33.884Z,1.75
2018-11-28T05:56:33.749Z,1.78
2018-11-28T05:58:26.411Z,1.74
2018-11-28T05:59:27.538Z,1.74
2018-11-28T06:01:18.966Z,1.76
2018-11-28T06:02:18.828Z,1.76
2018-11-28T06:04:11.501Z,1.74
2018-11-28T06:05:11.375Z,1.79
2018-11-28T06:07:04.022Z,1.76
2018-11-28T06:08:03.904Z,1.79
2018-11-28T06:09:56.579Z,1.78
2018-11-28T06:10:56.450Z,1.72
2018-11-28T06:12:49.104Z,1.78
2018-11-28T06:13:48.991Z,1.76
2018-11-28T06:15:41.666Z,1.75
2018-11-28T06:16:41.533Z,1.75
2018-11-28T06:18:34.189Z,1.75
2018-11-28T06:19:34.079Z,1.74
2018-11-28T06:21:26.753Z,1.75
2018-11-28T06:22:26.618Z,1.79
2018-11-28T06:24:19.289Z,1.71
2018-11-28T06:25:19.166Z,1.69
2018-11-28T06:27:11.821Z,1.72
2018-11-28T06:28:11.712Z,1.76
2018-11-28T06:30:04.375Z,1.68
2018-11-28T06:31:04.254Z,1.82
2018-11-28T06:32:56.916Z,1.75
2018-11-28T06:33:56.801Z,1.79
2018-11-28T06:35:49.476Z,1.75
2018-11-28T06:36:49.341Z,1.78
2018-11-28T06:38:42.006Z,1.83
2018-11-28T06:39:41.895Z,1.82
2018-11-28T06:41:34.609Z,1.82
2018-11-28T06:42:34.437Z,1.82
2018-11-28T06:44:27.114Z,1.82
2018-11-28T06:45:26.982Z,1.82
2018-11-28T06:47:19.636Z,1.83
2018-11-28T06:48:19.528Z,1.84
2018-11-28T06:50:12.220Z,1.92
2018-11-28T06:51:12.083Z,2.01
2018-11-28T06:53:04.744Z,2.01
2018-11-28T06:54:04.631Z,1.98
2018-11-28T06:55:57.296Z,2.01
2018-11-28T06:56:57.164Z,1.98
2018-11-28T06:58:49.829Z,2.04
2018-11-28T06:59:49.710Z,2.01
2018-11-28T07:01:42.381Z,2.15
2018-11-28T07:02:42.250Z,2.12
2018-11-28T07:04:34.921Z,2.16
2018-11-28T07:05:34.805Z,2.09
2018-11-28T07:07:27.446Z,2.16
2018-11-28T07:08:27.327Z,2.23
2018-11-28T07:10:20.024Z,2.29
2018-11-28T07:11:19.897Z,2.22
2018-11-28T07:13:12.548Z,2.22
2018-11-28T07:14:12.433Z,2.22
2018-11-28T07:16:05.106Z,2.26
2018-11-28T07:17:04.990Z,2.36
2018-11-28T07:18:57.634Z,2.40
2018-11-28T07:19:57.524Z,2.40
2018-11-28T07:21:50.195Z,2.38
2018-11-28T07:22:50.064Z,2.41
2018-11-28T07:24:42.738Z,2.36
2018-11-28T07:25:42.604Z,2.52
2018-11-28T07:27:35.263Z,2.38
2018-11-28T07:28:35.150Z,2.45
2018-11-28T07:30:27.824Z,2.47
2018-11-28T07:31:27.691Z,2.44
2018-11-28T07:33:20.351Z,2.45
2018-11-28T07:34:20.238Z,2.54
2018-11-28T07:36:12.909Z,2.52
2018-11-28T07:37:12.779Z,2.55
2018-11-28T07:39:05.439Z,2.58
2018-11-28T07:40:05.321Z,2.58
2018-11-28T07:41:57.995Z,2.63
2018-11-28T07:42:57.867Z,2.63
2018-11-28T07:44:50.519Z,2.59
2018-11-28T07:45:50.401Z,2.66
2018-11-28T07:47:43.080Z,2.60
2018-11-28T07:48:42.952Z,2.67
2018-11-28T07:50:35.624Z,2.73
2018-11-28T07:51:35.500Z,2.78
2018-11-28T07:53:28.232Z,2.73
2018-11-28T07:54:28.116Z,2.70
2018-11-28T07:56:20.790Z,2.81
2018-11-28T07:57:20.661Z,2.78
2018-11-28T07:59:13.369Z,2.84
2018-11-28T08:00:13.273Z,2.84
2018-11-28T08:02:05.919Z,2.96
2018-11-28T08:03:05.793Z,3.01
2018-11-28T08:04:58.449Z,2.96
2018-11-28T08:05:58.338Z,2.96
2018-11-28T08:07:51.011Z,2.98
2018-11-28T08:08:50.878Z,2.98
2018-11-28T08:10:43.548Z,2.95
2018-11-28T08:11:43.416Z,2.96
2018-11-28T08:13:36.088Z,3.02
2018-11-28T08:14:35.955Z,3.02
2018-11-28T08:16:28.624Z,3.08
2018-11-28T08:17:28.496Z,3.14
2018-11-28T08:19:24.020Z,3.23
2018-11-28T08:20:21.042Z,3.20
2018-11-28T08:22:14.708Z,3.30
2018-11-28T08:23:14.573Z,3.34
2018-11-28T08:25:07.462Z,3.32
2018-11-28T08:26:07.112Z,3.34
2018-11-28T08:27:59.906Z,3.37
2018-11-28T08:28:59.659Z,3.30
2018-11-28T08:30:52.337Z,3.35
2018-11-28T08:31:52.200Z,3.26
2018-11-28T08:33:44.869Z,3.42
2018-11-28T08:34:44.751Z,3.43
2018-11-28T08:36:37.422Z,3.43
2018-11-28T08:37:37.297Z,3.37
2018-11-28T08:39:29.953Z,3.60
2018-11-28T08:40:29.835Z,3.49
2018-11-28T08:42:22.512Z,3.57
2018-11-28T08:43:22.376Z,3.69
2018-11-28T08:45:15.037Z,3.66
2018-11-28T08:46:14.920Z,3.74
2018-11-28T08:48:07.603Z,3.74
2018-11-28T08:49:07.468Z,3.74
2018-11-28T08:51:00.147Z,3.71
2018-11-28T08:52:00.018Z,3.74
2018-11-28T08:53:52.680Z,3.71
2018-11-28T08:54:52.562Z,3.79
2018-11-28T08:56:45.237Z,3.81
2018-11-28T08:57:45.109Z,3.90
2018-11-28T08:59:37.766Z,3.90
2018-11-28T09:00:37.697Z,3.81
2018-11-28T09:02:30.327Z,3.96
2018-11-28T09:03:30.201Z,3.90
2018-11-28T09:05:22.858Z,3.99
2018-11-28T09:06:22.748Z,3.97
2018-11-28T09:08:15.418Z,4.12
2018-11-28T09:09:15.325Z,4.15
2018-11-28T09:11:07.988Z,4.14
2018-11-28T09:12:07.837Z,4.20
2018-11-28T09:14:04.504Z,4.22
2018-11-28T09:15:00.381Z,4.29
2018-11-28T09:16:53.063Z,4.28
2018-11-28T09:17:52.929Z,4.32
2018-11-28T09:19:45.593Z,4.36
2018-11-28T09:20:45.479Z,4.42
2018-11-28T09:22:38.655Z,4.57
2018-11-28T09:23:38.518Z,4.54
2018-11-28T09:25:31.177Z,4.61
2018-11-28T09:26:31.060Z,4.60
2018-11-28T09:28:23.735Z,4.78
2018-11-28T09:29:23.606Z,4.69
2018-11-28T09:31:16.264Z,4.78
2018-11-28T09:32:16.154Z,4.75
2018-11-28T09:34:08.824Z,4.88
2018-11-28T09:35:08.699Z,4.83
2018-11-28T09:37:01.373Z,4.97
2018-11-28T09:38:01.249Z,4.85
2018-11-28T09:39:53.910Z,5.02
2018-11-28T09:40:53.792Z,5.02
2018-11-28T09:42:46.468Z,5.09
2018-11-28T09:43:46.336Z,5.00
2018-11-28T09:45:38.995Z,5.10
2018-11-28T09:46:38.882Z,5.13
2018-11-28T09:48:31.553Z,5.23
2018-11-28T09:49:31.435Z,5.21
2018-11-28T09:51:24.103Z,5.24
2018-11-28T09:52:23.978Z,5.33
2018-11-28T09:54:16.661Z,5.34
2018-11-28T09:55:16.531Z,5.34
2018-11-28T09:57:09.204Z,5.37
2018-11-28T09:58:09.072Z,5.41
2018-11-28T10:00:01.737Z,5.46
2018-11-28T10:01:01.618Z,5.46
2018-11-28T10:02:54.297Z,5.48
2018-11-28T10:03:54.166Z,5.55
2018-11-28T10:05:47.296Z,5.48
2018-11-28T10:06:46.710Z,5.55
2018-11-28T10:08:39.388Z,5.54
2018-11-28T10:09:39.261Z,5.51
2018-11-28T10:11:31.926Z,5.67
2018-11-28T10:12:31.815Z,5.66
2018-11-28T10:14:24.497Z,5.67
2018-11-28T10:15:24.364Z,5.63
2018-11-28T10:17:17.031Z,5.78
2018-11-28T10:18:16.913Z,5.66
2018-11-28T10:20:09.593Z,5.69
2018-11-28T10:21:09.462Z,5.87
2018-11-28T10:23:02.146Z,5.85
2018-11-28T10:24:02.012Z,5.88
2018-11-28T10:25:54.682Z,5.99
2018-11-28T10:26:54.564Z,5.96
2018-11-28T10:28:47.246Z,6.09
2018-11-28T10:29:47.120Z,6.13
2018-11-28T10:31:39.785Z,6.24
2018-11-28T10:32:39.671Z,6.28
2018-11-28T10:34:32.352Z,6.24
2018-11-28T10:35:32.223Z,6.31
2018-11-28T10:37:24.882Z,6.34
2018-11-28T10:38:24.768Z,6.37
2018-11-28T10:40:17.450Z,6.28
2018-11-28T10:41:17.325Z,6.29
2018-11-28T10:43:09.994Z,6.34
2018-11-28T10:44:09.864Z,6.29
2018-11-28T10:46:02.522Z,6.26
2018-11-28T10:47:02.412Z,6.34
2018-11-28T10:48:55.092Z,6.31
2018-11-28T10:49:54.963Z,6.37
2018-11-28T10:51:50.258Z,6.42
2018-11-28T10:52:47.510Z,6.33
2018-11-28T10:54:40.188Z,6.37
2018-11-28T10:55:40.052Z,6.37
2018-11-28T10:57:32.717Z,6.40
2018-11-28T10:58:32.606Z,6.42
2018-11-28T11:00:25.353Z,6.40
2018-11-28T11:01:25.175Z,6.37
2018-11-28T11:03:17.834Z,6.36
2018-11-28T11:04:17.705Z,6.39
2018-11-28T11:06:10.374Z,6.39
2018-11-28T11:07:10.256Z,6.34
2018-11-28T11:09:02.935Z,6.36
2018-11-28T11:10:02.804Z,6.36
2018-11-28T11:11:55.460Z,6.40
2018-11-28T11:12:55.350Z,6.43
2018-11-28T11:14:48.021Z,6.46
2018-11-28T11:15:47.891Z,6.44
2018-11-28T11:17:40.551Z,6.55
2018-11-28T11:18:40.443Z,6.49
2018-11-28T11:20:33.118Z,6.52
2018-11-28T11:21:32.986Z,6.57
2018-11-28T11:23:25.648Z,6.60
2018-11-28T11:24:25.537Z,6.60
2018-11-28T11:26:18.212Z,6.65
2018-11-28T11:27:18.079Z,6.70
2018-11-28T11:29:10.757Z,6.80
2018-11-28T11:30:10.634Z,6.79
2018-11-28T11:32:03.293Z,6.80
2018-11-28T11:33:03.184Z,6.90
2018-11-28T11:34:55.879Z,6.94
2018-11-28T11:35:55.730Z,6.94
2018-11-28T11:37:48.385Z,7.04
2018-11-28T11:38:48.275Z,7.01
2018-11-28T11:40:40.955Z,7.12
2018-11-28T11:41:40.825Z,7.18
2018-11-28T11:43:33.476Z,7.29
2018-11-28T11:44:33.374Z,7.34
2018-11-28T11:46:26.056Z,7.31
2018-11-28T11:47:25.922Z,7.36
2018-11-28T11:49:18.599Z,7.45
2018-11-28T11:50:18.472Z,7.48
2018-11-28T11:52:11.146Z,7.58
2018-11-28T11:53:11.023Z,7.64
2018-11-28T11:55:03.707Z,7.63
2018-11-28T11:56:03.581Z,7.59
2018-11-28T11:57:56.249Z,7.63
2018-11-28T11:58:56.137Z,7.70
2018-11-28T12:00:48.806Z,7.70
2018-11-28T12:01:54.570Z,7.61
2018-11-28T12:03:41.343Z,7.68
2018-11-28T12:04:41.234Z,7.68
2018-11-28T12:06:33.908Z,7.77
2018-11-28T12:07:33.780Z,7.75
2018-11-28T12:09:26.465Z,7.64
2018-11-28T12:10:26.329Z,7.61
2018-11-28T12:12:18.996Z,7.61
2018-11-28T12:13:18.890Z,7.68
2018-11-28T12:15:11.556Z,7.71
2018-11-28T12:16:11.432Z,7.74
2018-11-28T12:18:04.092Z,7.78
2018-11-28T12:19:05.062Z,7.77
2018-11-28T12:20:56.663Z,7.83
2018-11-28T12:21:56.532Z,7.77
2018-11-28T12:23:49.193Z,7.73
2018-11-28T12:24:49.082Z,7.78
2018-11-28T12:26:41.761Z,7.92
2018-11-28T12:27:41.819Z,7.78
2018-11-28T12:29:34.311Z,7.88
2018-11-28T12:30:34.184Z,7.88
2018-11-28T12:32:26.838Z,7.95
2018-11-28T12:33:26.758Z,7.89
2018-11-28T12:35:19.406Z,7.93
2018-11-28T12:36:19.275Z,7.86
2018-11-28T12:38:11.939Z,7.85
2018-11-28T12:39:11.826Z,7.89
2018-11-28T12:41:04.513Z,7.85
2018-11-28T12:42:04.387Z,7.83
2018-11-28T12:43:57.045Z,7.95
2018-11-28T12:44:56.926Z,7.95
2018-11-28T12:46:49.615Z,8.09
2018-11-28T12:47:49.482Z,8.01
2018-11-28T12:49:42.256Z,7.95
2018-11-28T12:50:42.122Z,7.92
2018-11-28T12:52:34.790Z,7.98
2018-11-28T12:53:34.682Z,8.07
2018-11-28T12:55:27.360Z,8.10
2018-11-28T12:56:27.233Z,8.09
2018-11-28T12:58:19.891Z,8.11
2018-11-28T12:59:19.781Z,8.11
2018-11-28T13:01:12.458Z,8.10
2018-11-28T13:02:12.336Z,8.17
2018-11-28T13:04:04.998Z,8.16
2018-11-28T13:05:04.885Z,8.14
2018-11-28T13:06:57.573Z,8.17
2018-11-28T13:07:57.439Z,8.22
2018-11-28T13:09:50.128Z,8.29
2018-11-28T13:10:49.996Z,8.29
2018-11-28T13:12:42.658Z,8.34
2018-11-28T13:13:42.541Z,8.26
2018-11-28T13:15:35.224Z,8.43
2018-11-28T13:16:35.095Z,8.46
2018-11-28T13:18:27.757Z,8.43
2018-11-28T13:19:27.642Z,8.43
2018-11-28T13:21:20.343Z,8.46
2018-11-28T13:22:20.221Z,8.49
2018-11-28T13:24:12.886Z,8.42
2018-11-28T13:25:12.771Z,8.50
2018-11-28T13:27:05.452Z,8.49
2018-11-28T13:28:05.326Z,8.50
2018-11-28T13:29:57.987Z,8.43
2018-11-28T13:30:57.871Z,8.47
2018-11-28T13:32:51.546Z,8.47
2018-11-28T13:33:51.418Z,8.49
2018-11-28T13:35:44.096Z,8.46
2018-11-28T13:36:43.971Z,8.46
2018-11-28T13:38:37.626Z,8.49
2018-11-28T13:39:37.512Z,8.52
2018-11-28T13:41:30.193Z,8.49
2018-11-28T13:42:30.061Z,8.50
2018-11-28T13:44:22.730Z,8.44
2018-11-28T13:45:22.621Z,8.54
2018-11-28T13:47:15.301Z,8.58
2018-11-28T13:48:15.170Z,8.60
2018-11-28T13:50:07.839Z,8.69
2018-11-28T13:51:07.725Z,8.64
2018-11-28T13:53:00.405Z,8.65
2018-11-28T13:54:00.274Z,8.76
2018-11-28T13:56:57.103Z,8.74
2018-11-28T13:57:03.930Z,8.69
2018-11-28T13:58:45.489Z,8.69
2018-11-28T13:59:45.374Z,8.65
2018-11-28T14:01:38.058Z,8.65
2018-11-28T14:02:37.923Z,8.65
2018-11-28T14:04:30.656Z,8.58
2018-11-28T14:05:30.481Z,8.72
2018-11-28T14:07:23.159Z,8.67
2018-11-28T14:08:23.029Z,8.62
2018-11-28T14:10:15.695Z,8.65
2018-11-28T14:11:15.580Z,8.57
2018-11-28T14:13:08.268Z,8.54
2018-11-28T14:14:08.136Z,8.62
2018-11-28T14:16:00.803Z,8.53
2018-11-28T14:17:00.752Z,8.43
2018-11-28T14:18:53.371Z,8.50
2018-11-28T14:19:53.230Z,8.53
2018-11-28T14:21:45.993Z,8.43
2018-11-28T14:22:45.795Z,8.39
2018-11-28T14:24:38.462Z,8.43
2018-11-28T14:25:38.349Z,8.42
2018-11-28T14:27:31.039Z,8.44
2018-11-28T14:28:30.962Z,8.43
2018-11-28T14:30:23.598Z,8.50
2018-11-28T14:31:23.483Z,8.46
2018-11-28T14:33:16.187Z,8.46
2018-11-28T14:34:16.026Z,8.43
2018-11-28T14:36:08.706Z,8.46
2018-11-28T14:37:08.604Z,8.46
2018-11-28T14:39:01.276Z,8.43
2018-11-28T14:40:01.145Z,8.43
2018-11-28T14:41:53.831Z,8.44
2018-11-28T14:42:53.697Z,8.44
2018-11-28T14:44:46.364Z,8.35
2018-11-28T14:45:46.252Z,8.40
2018-11-28T14:47:38.928Z,8.35
2018-11-28T14:48:38.796Z,8.28
2018-11-28T14:50:31.469Z,8.29
2018-11-28T14:51:31.353Z,8.31
2018-11-28T14:53:24.037Z,8.34
2018-11-28T14:54:23.907Z,8.32
2018-11-28T14:56:16.567Z,8.32
2018-11-28T14:57:16.456Z,8.34
2018-11-28T14:59:09.129Z,8.24
2018-11-28T15:00:09.014Z,8.22
2018-11-28T15:02:01.688Z,8.19
2018-11-28T15:03:01.555Z,8.21
2018-11-28T15:04:54.220Z,8.14
2018-11-28T15:05:54.109Z,8.19
2018-11-28T15:07:46.786Z,8.22
2018-11-28T15:08:46.655Z,8.24
2018-11-28T15:10:39.315Z,8.22
2018-11-28T15:11:39.202Z,8.19
2018-11-28T15:13:31.878Z,8.25
2018-11-28T15:14:31.749Z,8.21
2018-11-28T15:16:24.408Z,8.10
2018-11-28T15:17:24.300Z,8.13
2018-11-28T15:19:16.970Z,8.25
2018-11-28T15:20:16.844Z,8.13
2018-11-28T15:22:09.560Z,8.16
2018-11-28T15:23:09.394Z,8.11
2018-11-28T15:25:02.056Z,8.10
2018-11-28T15:26:01.937Z,8.09
2018-11-28T15:27:54.619Z,8.09
2018-11-28T15:28:54.491Z,8.07
2018-11-28T15:30:47.153Z,8.10
2018-11-28T15:31:47.034Z,8.06
2018-11-28T15:33:39.714Z,8.04
2018-11-28T15:34:39.579Z,7.99
2018-11-28T15:36:32.280Z,8.10
2018-11-28T15:37:32.133Z,8.09
2018-11-28T15:39:24.811Z,8.04
2018-11-28T15:40:24.686Z,7.99
2018-11-28T15:42:17.343Z,8.06
2018-11-28T15:43:17.238Z,8.10
2018-11-28T15:45:09.917Z,8.06
2018-11-28T15:46:14.620Z,8.11
2018-11-28T15:48:02.462Z,8.10
2018-11-28T15:49:02.340Z,7.89
2018-11-28T15:50:55.000Z,7.98
2018-11-28T15:51:54.883Z,7.99
2018-11-28T15:53:47.564Z,7.99
2018-11-28T15:54:47.433Z,7.88
2018-11-28T15:56:40.103Z,7.85
2018-11-28T15:57:39.988Z,7.89
2018-11-28T15:59:32.670Z,7.83
2018-11-28T16:00:32.544Z,7.91
2018-11-28T16:02:25.213Z,7.86
2018-11-28T16:03:25.097Z,7.88
2018-11-28T16:05:17.782Z,7.96
2018-11-28T16:06:17.653Z,7.92
2018-11-28T16:08:10.324Z,7.95
2018-11-28T16:09:10.196Z,7.98
2018-11-28T16:11:02.857Z,7.96
2018-11-28T16:12:02.742Z,7.98
2018-11-28T16:13:55.416Z,7.91
2018-11-28T16:14:55.287Z,7.86
2018-11-28T16:16:47.950Z,7.85
2018-11-28T16:17:47.837Z,7.92
2018-11-28T16:19:40.510Z,7.88
2018-11-28T16:20:40.382Z,7.91
2018-11-28T16:22:33.045Z,7.82
2018-11-28T16:23:32.935Z,7.88
2018-11-28T16:25:25.611Z,7.91
2018-11-28T16:26:25.477Z,7.83
2018-11-28T16:28:18.183Z,7.92
2018-11-28T16:29:18.069Z,7.95
2018-11-28T16:31:10.714Z,7.88
2018-11-28T16:32:10.598Z,7.92
2018-11-28T16:34:03.346Z,7.91
2018-11-28T16:35:03.150Z,7.91
2018-11-28T16:36:55.811Z,8.03
2018-11-28T16:37:55.694Z,7.91
2018-11-28T16:39:48.366Z,7.99
2018-11-28T16:40:48.244Z,7.95
2018-11-28T16:42:40.927Z,7.93
2018-11-28T16:43:40.808Z,8.06
2018-11-28T16:45:33.492Z,7.99
2018-11-28T16:46:33.381Z,8.07
2018-11-28T16:48:26.027Z,7.92
2018-11-28T16:49:25.899Z,8.06
2018-11-28T16:51:18.557Z,8.03
2018-11-28T16:52:18.469Z,7.91
2018-11-28T16:54:11.126Z,8.03
2018-11-28T16:55:10.997Z,7.95
2018-11-28T16:57:04.656Z,7.92
2018-11-28T16:58:04.556Z,7.96
2018-11-28T16:59:57.712Z,7.96
2018-11-28T17:00:57.588Z,7.95
2018-11-28T17:02:50.248Z,7.92
2018-11-28T17:03:50.132Z,7.95
2018-11-28T17:05:42.816Z,8.06
2018-11-28T17:06:42.679Z,7.93
2018-11-28T17:08:35.364Z,8.10
2018-11-28T17:09:35.223Z,8.07
2018-11-28T17:11:27.889Z,8.04
2018-11-28T17:12:27.770Z,8.01
2018-11-28T17:14:20.451Z,8.03
2018-11-28T17:15:20.330Z,8.04
2018-11-28T17:17:12.989Z,8.10
2018-11-28T17:18:12.880Z,8.10
2018-11-28T17:20:05.567Z,8.10
2018-11-28T17:21:05.422Z,8.13
2018-11-28T17:22:58.090Z,8.14
2018-11-28T17:23:57.975Z,8.13
2018-11-28T17:25:50.658Z,8.14
2018-11-28T17:26:50.521Z,8.04
2018-11-28T17:28:43.184Z,8.13
2018-11-28T17:29:43.074Z,8.10
2018-11-28T17:31:35.748Z,8.07
2018-11-28T17:32:35.621Z,8.10
2018-11-28T17:34:28.310Z,8.13
2018-11-28T17:35:28.179Z,8.11
2018-11-28T17:37:20.845Z,8.03
2018-11-28T17:38:20.731Z,7.89
2018-11-28T17:40:13.409Z,7.85
2018-11-28T17:41:13.282Z,7.99
2018-11-28T17:43:05.955Z,7.86
2018-11-28T17:44:05.834Z,7.93
2018-11-28T17:45:58.536Z,7.88
2018-11-28T17:46:58.378Z,7.95
2018-11-28T17:48:51.045Z,7.86
2018-11-28T17:49:50.931Z,7.93
2018-11-28T17:51:43.614Z,7.77
2018-11-28T17:52:43.483Z,7.82
2018-11-28T17:54:36.163Z,7.78
2018-11-28T17:55:36.027Z,7.77
2018-11-28T17:57:28.687Z,7.75
2018-11-28T17:58:28.578Z,7.78
2018-11-28T18:00:21.251Z,7.74
2018-11-28T18:01:21.122Z,7.63
2018-11-28T18:03:13.777Z,7.63
2018-11-28T18:04:13.667Z,7.63
2018-11-28T18:06:06.350Z,7.63
2018-11-28T18:07:06.225Z,7.58
2018-11-28T18:08:58.885Z,7.61
2018-11-28T18:09:58.795Z,7.61
2018-11-28T18:11:51.453Z,7.70
2018-11-28T18:12:51.316Z,7.56
2018-11-28T18:14:44.001Z,7.56
2018-11-28T18:15:43.865Z,7.64
2018-11-28T18:17:36.525Z,7.55
2018-11-28T18:18:36.408Z,7.64
2018-11-28T18:20:29.092Z,7.55
2018-11-28T18:21:28.960Z,7.67
2018-11-28T18:23:21.627Z,7.61
2018-11-28T18:24:21.508Z,7.63
2018-11-28T18:26:14.194Z,7.59
2018-11-28T18:27:14.064Z,7.70
2018-11-28T18:29:06.725Z,7.67
2018-11-28T18:30:06.623Z,7.70
2018-11-28T18:31:59.295Z,7.58
2018-11-28T18:32:59.182Z,7.63
2018-11-28T18:34:52.773Z,7.61
2018-11-28T18:35:51.723Z,7.64
2018-11-28T18:37:44.391Z,7.64
2018-11-28T18:38:44.279Z,7.68
2018-11-28T18:40:36.972Z,7.55
2018-11-28T18:41:36.868Z,7.56
2018-11-28T18:43:29.503Z,7.58
2018-11-28T18:44:29.435Z,7.63
2018-11-28T18:46:22.066Z,7.58
2018-11-28T18:47:21.936Z,7.63
2018-11-28T18:49:14.593Z,7.64
2018-11-28T18:50:14.487Z,7.70
2018-11-28T18:52:07.158Z,7.63
2018-11-28T18:53:07.032Z,7.71
2018-11-28T18:54:59.689Z,7.54
2018-11-28T18:55:59.579Z,7.67
2018-11-28T18:57:52.255Z,7.59
2018-11-28T18:58:52.144Z,7.59
2018-11-28T19:00:44.803Z,7.63
2018-11-28T19:01:48.378Z,7.63
2018-11-28T19:03:37.336Z,7.58
2018-11-28T19:04:37.224Z,7.61
2018-11-28T19:06:29.897Z,7.54
2018-11-28T19:07:29.767Z,7.67
2018-11-28T19:09:22.435Z,7.51
2018-11-28T19:10:26.204Z,7.68
2018-11-28T19:12:14.997Z,7.63
2018-11-28T19:13:14.880Z,7.55
2018-11-28T19:15:07.523Z,7.51
2018-11-28T19:16:07.720Z,7.56
2018-11-28T19:18:00.085Z,7.52
2018-11-28T19:18:59.959Z,7.59
2018-11-28T19:20:52.631Z,7.48
2018-11-28T19:21:52.500Z,7.47
2018-11-28T19:23:45.164Z,7.51
2018-11-28T19:24:45.049Z,7.47
2018-11-28T19:26:37.726Z,7.52
2018-11-28T19:27:37.596Z,7.44
2018-11-28T19:29:30.256Z,7.44
2018-11-28T19:32:22.817Z,7.41
2018-11-28T19:33:22.682Z,7.49
2018-11-28T19:34:39.910Z,7.49
2018-11-28T19:35:15.346Z,7.47
2018-11-28T19:36:15.232Z,7.45
2018-11-28T19:38:07.908Z,7.49
2018-11-28T19:39:07.775Z,7.49
2018-11-28T19:41:00.467Z,7.47
2018-11-28T19:42:00.326Z,7.48
2018-11-28T19:43:53.017Z,7.45
2018-11-28T19:44:52.881Z,7.52
2018-11-28T19:46:45.556Z,7.54
2018-11-28T19:47:45.433Z,7.55
2018-11-28T19:49:38.130Z,7.44
2018-11-28T19:50:38.018Z,7.48
2018-11-28T19:52:30.837Z,7.45
2018-11-28T19:53:30.642Z,7.47
2018-11-28T19:55:23.229Z,7.49
2018-11-28T19:56:23.118Z,7.52
2018-11-28T19:58:16.491Z,7.55
2018-11-28T19:59:15.663Z,7.47
2018-11-28T20:01:08.330Z,7.48
2018-11-28T20:02:08.211Z,7.56
2018-11-28T20:04:00.898Z,7.59
2018-11-28T20:05:00.763Z,7.54
2018-11-28T20:06:53.443Z,7.56
2018-11-28T20:07:53.315Z,7.59
2018-11-28T20:09:47.432Z,7.51
2018-11-28T20:10:46.307Z,7.59
2018-11-28T20:12:38.615Z,7.58
2018-11-28T20:13:38.533Z,7.52
2018-11-28T20:15:31.154Z,7.56
2018-11-28T20:16:31.042Z,7.47
2018-11-28T20:18:23.717Z,7.67
2018-11-28T20:19:23.601Z,7.70
2018-11-28T20:21:16.252Z,7.58
2018-11-28T20:22:16.144Z,7.58
2018-11-28T20:24:08.812Z,7.61
2018-11-28T20:25:08.682Z,7.67
2018-11-28T20:27:01.358Z,7.61
2018-11-28T20:28:01.227Z,7.63
2018-11-28T20:29:54.085Z,7.58
2018-11-28T20:30:53.772Z,7.54
2018-11-28T20:32:46.485Z,7.61
2018-11-28T20:33:46.353Z,7.68
2018-11-28T20:35:39.019Z,7.64
2018-11-28T20:36:38.907Z,7.77
2018-11-28T20:38:31.589Z,7.71
2018-11-28T20:39:31.460Z,7.70
2018-11-28T20:41:24.124Z,7.68
2018-11-28T20:42:24.006Z,7.61
2018-11-28T20:44:16.693Z,7.70
2018-11-28T20:45:16.562Z,7.64
2018-11-28T20:47:09.236Z,7.63
2018-11-28T20:48:09.109Z,7.71
2018-11-28T20:50:01.772Z,7.64
2018-11-28T20:51:01.657Z,7.67
2018-11-28T20:52:55.071Z,7.70
2018-11-28T20:53:54.206Z,7.71
2018-11-28T20:55:46.883Z,7.71
2018-11-28T20:56:46.765Z,7.71
2018-11-28T20:58:39.444Z,7.70
2018-11-28T20:59:39.508Z,7.71
2018-11-28T21:01:31.976Z,7.74
2018-11-28T21:02:31.874Z,7.71
2018-11-28T21:04:24.567Z,7.73
2018-11-28T21:05:24.406Z,7.77
2018-11-28T21:07:17.095Z,7.77
2018-11-28T21:08:16.958Z,7.78
2018-11-28T21:10:09.619Z,7.78
2018-11-28T21:11:09.534Z,7.82
2018-11-28T21:13:02.521Z,7.82
2018-11-28T21:14:02.351Z,7.74
2018-11-28T21:15:54.709Z,7.82
2018-11-28T21:16:54.604Z,7.75
2018-11-28T21:18:47.289Z,7.80
2018-11-28T21:19:47.159Z,7.74
2018-11-28T21:21:39.836Z,7.80
2018-11-28T21:22:39.742Z,7.78
2018-11-28T21:24:32.399Z,7.74
2018-11-28T21:25:32.276Z,7.80
2018-11-28T21:27:24.941Z,7.80
2018-11-28T21:28:24.837Z,7.83
2018-11-28T21:30:17.518Z,7.89
2018-11-28T21:31:17.393Z,7.89
2018-11-28T21:33:10.070Z,7.93
2018-11-28T21:34:09.933Z,7.77
2018-11-28T21:36:02.600Z,7.78
2018-11-28T21:37:02.479Z,7.86
2018-11-28T21:38:55.172Z,7.92
2018-11-28T21:39:55.039Z,7.93
2018-11-28T21:41:47.708Z,7.80
2018-11-28T21:42:47.595Z,7.78
2018-11-28T21:44:40.272Z,7.92
2018-11-28T21:45:40.145Z,7.92
2018-11-28T21:47:32.810Z,7.86
2018-11-28T21:48:32.696Z,7.99
2018-11-28T21:50:25.383Z,7.96
2018-11-28T21:51:25.254Z,7.98
2018-11-28T21:53:17.949Z,8.01
2018-11-28T21:54:17.811Z,7.98
2018-11-28T21:56:10.474Z,8.03
2018-11-28T21:57:10.364Z,8.06
2018-11-28T21:59:03.041Z,7.95
2018-11-28T22:00:02.921Z,7.92
2018-11-28T22:01:55.589Z,8.10
2018-11-28T22:02:55.481Z,8.09
2018-11-28T22:04:48.155Z,8.06
2018-11-28T22:05:48.030Z,8.10
2018-11-28T22:07:40.694Z,8.04
2018-11-28T22:08:40.585Z,8.11
2018-11-28T22:10:33.268Z,8.09
2018-11-28T22:11:33.136Z,8.07
2018-11-28T22:13:25.817Z,8.04
2018-11-28T22:14:25.691Z,8.10
2018-11-28T22:16:18.355Z,8.10
2018-11-28T22:17:18.243Z,8.07
2018-11-28T22:19:10.974Z,8.16
2018-11-28T22:20:10.791Z,8.11
2018-11-28T22:22:03.455Z,8.06
2018-11-28T22:23:03.347Z,8.07
2018-11-28T22:24:56.023Z,8.16
2018-11-28T22:25:55.887Z,8.13
2018-11-28T22:27:48.560Z,8.13
2018-11-28T22:28:48.447Z,8.14
2018-11-28T22:30:41.128Z,8.24
2018-11-28T22:31:41.007Z,8.24
2018-11-28T22:33:33.683Z,8.21
2018-11-28T22:34:33.555Z,8.21
2018-11-28T22:36:26.217Z,8.22
2018-11-28T22:37:26.111Z,8.21
2018-11-28T22:39:18.784Z,8.31
2018-11-28T22:40:18.651Z,8.29
2018-11-28T22:42:11.315Z,8.31
2018-11-28T22:43:11.201Z,8.32
2018-11-28T22:45:03.881Z,8.29
2018-11-28T22:46:03.759Z,8.31
2018-11-28T22:47:56.418Z,8.34
2018-11-28T22:48:56.302Z,8.29
2018-11-28T22:50:48.978Z,8.31
2018-11-28T22:51:48.855Z,8.28
2018-11-28T22:53:41.548Z,8.31
2018-11-28T22:54:41.417Z,8.28
2018-11-28T22:56:34.082Z,8.29
2018-11-28T22:57:33.965Z,8.35
2018-11-28T22:59:26.646Z,8.35
